sensor_id;sensor_type;location;lat;lon;timestamp;P1;durP1;ratioP1;P2;durP2;ratioP2
27925;SDS011;15267;47.838;12.128;2022-11-20T00:01:47;1.30;;;1.00;;
27925;SDS011;15267;47.838;12.128;2022-11-20T00:04:13;2.20;;;1.40;;
27925;SDS011;15267;47.838;12.128;2022-11-20T00:06:39;2.25;;;1.10;;
27925;SDS011;15267;47.838;12.128;2022-11-20T00:09:05;2.22;;;1.08;;
27925;SDS011;15267;47.838;12.128;2022-11-20T00:11:31;2.85;;;1.20;;
27925;SDS011;15267;47.838;12.128;2022-11-20T00:13:58;1.92;;;1.10;;
27925;SDS011;15267;47.838;12.128;2022-11-20T00:16:26;1.30;;;1.10;;
27925;SDS011;15267;47.838;12.128;2022-11-20T00:18:52;2.67;;;1.20;;
27925;SDS011;15267;47.838;12.128;2022-11-20T00:21:19;1.83;;;1.00;;
27925;SDS011;15267;47.838;12.128;2022-11-20T00:23:46;3.08;;;1.27;;
27925;SDS011;15267;47.838;12.128;2022-11-20T00:26:13;1.98;;;1.38;;
27925;SDS011;15267;47.838;12.128;2022-11-20T00:28:39;1.60;;;1.10;;
27925;SDS011;15267;47.838;12.128;2022-11-20T00:31:10;1.90;;;1.10;;
27925;SDS011;15267;47.838;12.128;2022-11-20T00:33:36;3.10;;;1.25;;
27925;SDS011;15267;47.838;12.128;2022-11-20T00:36:03;1.95;;;1.30;;
27925;SDS011;15267;47.838;12.128;2022-11-20T00:38:30;1.45;;;1.10;;
27925;SDS011;15267;47.838;12.128;2022-11-20T00:41:00;2.65;;;1.58;;
27925;SDS011;15267;47.838;12.128;2022-11-20T00:43:26;2.30;;;1.15;;
27925;SDS011;15267;47.838;12.128;2022-11-20T00:46:26;1.92;;;1.10;;
27925;SDS011;15267;47.838;12.128;2022-11-20T00:48:44;1.40;;;1.10;;
27925;SDS011;15267;47.838;12.128;2022-11-20T00:51:12;3.35;;;1.33;;
27925;SDS011;15267;47.838;12.128;2022-11-20T00:53:38;1.95;;;1.30;;
27925;SDS011;15267;47.838;12.128;2022-11-20T00:56:05;1.98;;;1.58;;
27925;SDS011;15267;47.838;12.128;2022-11-20T00:58:35;2.40;;;1.23;;
27925;SDS011;15267;47.838;12.128;2022-11-20T01:03:30;1.30;;;1.20;;
27925;SDS011;15267;47.838;12.128;2022-11-20T01:05:59;1.55;;;1.15;;
27925;SDS011;15267;47.838;12.128;2022-11-20T01:08:25;1.58;;;1.15;;
27925;SDS011;15267;47.838;12.128;2022-11-20T01:10:51;3.25;;;1.48;;
27925;SDS011;15267;47.838;12.128;2022-11-20T01:13:17;2.13;;;1.10;;
27925;SDS011;15267;47.838;12.128;2022-11-20T01:16:02;2.13;;;1.10;;
27925;SDS011;15267;47.838;12.128;2022-11-20T01:18:28;2.83;;;1.30;;
27925;SDS011;15267;47.838;12.128;2022-11-20T01:20:54;1.90;;;1.15;;
27925;SDS011;15267;47.838;12.128;2022-11-20T01:23:20;1.98;;;1.10;;
27925;SDS011;15267;47.838;12.128;2022-11-20T01:25:46;3.78;;;1.13;;
27925;SDS011;15267;47.838;12.128;2022-11-20T01:28:12;1.27;;;1.10;;
27925;SDS011;15267;47.838;12.128;2022-11-20T01:30:38;1.30;;;1.20;;
27925;SDS011;15267;47.838;12.128;2022-11-20T01:33:04;2.20;;;1.30;;
27925;SDS011;15267;47.838;12.128;2022-11-20T01:35:30;2.17;;;1.00;;
27925;SDS011;15267;47.838;12.128;2022-11-20T01:37:56;1.58;;;1.25;;
27925;SDS011;15267;47.838;12.128;2022-11-20T01:40:22;1.65;;;1.10;;
27925;SDS011;15267;47.838;12.128;2022-11-20T01:42:51;2.55;;;1.33;;
27925;SDS011;15267;47.838;12.128;2022-11-20T01:48:23;1.27;;;1.13;;
27925;SDS011;15267;47.838;12.128;2022-11-20T01:50:52;1.83;;;1.40;;
27925;SDS011;15267;47.838;12.128;2022-11-20T01:53:18;1.30;;;1.15;;
27925;SDS011;15267;47.838;12.128;2022-11-20T01:55:50;2.53;;;1.10;;
27925;SDS011;15267;47.838;12.128;2022-11-20T01:58:18;1.63;;;1.20;;
27925;SDS011;15267;47.838;12.128;2022-11-20T02:00:45;1.83;;;1.40;;
27925;SDS011;15267;47.838;12.128;2022-11-20T02:03:12;1.35;;;1.23;;
27925;SDS011;15267;47.838;12.128;2022-11-20T02:05:46;2.67;;;1.35;;
27925;SDS011;15267;47.838;12.128;2022-11-20T02:08:13;1.65;;;1.10;;
27925;SDS011;15267;47.838;12.128;2022-11-20T02:10:39;2.90;;;1.38;;
27925;SDS011;15267;47.838;12.128;2022-11-20T02:13:05;2.05;;;1.20;;
27925;SDS011;15267;47.838;12.128;2022-11-20T02:15:50;2.53;;;1.50;;
27925;SDS011;15267;47.838;12.128;2022-11-20T02:18:17;2.05;;;1.30;;
27925;SDS011;15267;47.838;12.128;2022-11-20T02:20:45;1.65;;;1.30;;
27925;SDS011;15267;47.838;12.128;2022-11-20T02:23:20;2.40;;;1.42;;
27925;SDS011;15267;47.838;12.128;2022-11-20T02:25:50;2.55;;;1.60;;
27925;SDS011;15267;47.838;12.128;2022-11-20T02:28:16;1.70;;;1.55;;
27925;SDS011;15267;47.838;12.128;2022-11-20T02:30:43;2.65;;;1.58;;
27925;SDS011;15267;47.838;12.128;2022-11-20T02:33:09;3.45;;;1.60;;
27925;SDS011;15267;47.838;12.128;2022-11-20T02:38:01;1.98;;;1.42;;
27925;SDS011;15267;47.838;12.128;2022-11-20T02:40:28;2.47;;;1.35;;
27925;SDS011;15267;47.838;12.128;2022-11-20T02:42:54;1.77;;;1.40;;
27925;SDS011;15267;47.838;12.128;2022-11-20T02:45:21;3.25;;;1.50;;
27925;SDS011;15267;47.838;12.128;2022-11-20T02:47:47;2.15;;;1.20;;
27925;SDS011;15267;47.838;12.128;2022-11-20T02:50:13;1.52;;;1.20;;
27925;SDS011;15267;47.838;12.128;2022-11-20T02:52:39;2.33;;;1.30;;
27925;SDS011;15267;47.838;12.128;2022-11-20T02:55:05;1.50;;;1.40;;
27925;SDS011;15267;47.838;12.128;2022-11-20T02:57:32;1.95;;;1.40;;
27925;SDS011;15267;47.838;12.128;2022-11-20T02:59:58;1.60;;;1.40;;
27925;SDS011;15267;47.838;12.128;2022-11-20T03:02:24;1.40;;;1.20;;
27925;SDS011;15267;47.838;12.128;2022-11-20T03:04:49;1.83;;;1.38;;
27925;SDS011;15267;47.838;12.128;2022-11-20T03:07:16;1.13;;;1.00;;
27925;SDS011;15267;47.838;12.128;2022-11-20T03:09:41;1.40;;;1.30;;
27925;SDS011;15267;47.838;12.128;2022-11-20T03:12:07;1.38;;;1.27;;
27925;SDS011;15267;47.838;12.128;2022-11-20T03:14:34;1.98;;;1.33;;
27925;SDS011;15267;47.838;12.128;2022-11-20T03:17:00;2.78;;;1.38;;
27925;SDS011;15267;47.838;12.128;2022-11-20T03:19:26;2.25;;;1.40;;
27925;SDS011;15267;47.838;12.128;2022-11-20T03:21:52;2.22;;;1.40;;
27925;SDS011;15267;47.838;12.128;2022-11-20T03:24:18;1.50;;;1.30;;
27925;SDS011;15267;47.838;12.128;2022-11-20T03:26:44;2.03;;;1.42;;
27925;SDS011;15267;47.838;12.128;2022-11-20T03:29:10;1.83;;;1.45;;
27925;SDS011;15267;47.838;12.128;2022-11-20T03:31:36;2.45;;;1.40;;
27925;SDS011;15267;47.838;12.128;2022-11-20T03:34:05;1.90;;;1.40;;
27925;SDS011;15267;47.838;12.128;2022-11-20T03:36:31;3.20;;;1.60;;
27925;SDS011;15267;47.838;12.128;2022-11-20T03:38:57;2.58;;;1.80;;
27925;SDS011;15267;47.838;12.128;2022-11-20T03:41:25;2.45;;;1.60;;
27925;SDS011;15267;47.838;12.128;2022-11-20T03:43:51;2.58;;;1.70;;
27925;SDS011;15267;47.838;12.128;2022-11-20T03:46:18;2.95;;;1.52;;
27925;SDS011;15267;47.838;12.128;2022-11-20T03:48:44;2.45;;;1.70;;
27925;SDS011;15267;47.838;12.128;2022-11-20T03:51:30;2.17;;;1.70;;
27925;SDS011;15267;47.838;12.128;2022-11-20T03:53:57;3.22;;;1.80;;
27925;SDS011;15267;47.838;12.128;2022-11-20T03:56:24;2.97;;;2.10;;
27925;SDS011;15267;47.838;12.128;2022-11-20T03:58:50;2.30;;;1.88;;
27925;SDS011;15267;47.838;12.128;2022-11-20T04:01:18;2.53;;;2.00;;
27925;SDS011;15267;47.838;12.128;2022-11-20T04:03:45;2.63;;;1.95;;
27925;SDS011;15267;47.838;12.128;2022-11-20T04:08:37;3.88;;;2.17;;
27925;SDS011;15267;47.838;12.128;2022-11-20T04:11:10;3.28;;;2.00;;
27925;SDS011;15267;47.838;12.128;2022-11-20T04:13:36;3.67;;;2.40;;
27925;SDS011;15267;47.838;12.128;2022-11-20T04:16:02;2.80;;;2.20;;
27925;SDS011;15267;47.838;12.128;2022-11-20T04:18:28;2.80;;;2.28;;
27925;SDS011;15267;47.838;12.128;2022-11-20T04:20:55;3.78;;;2.50;;
27925;SDS011;15267;47.838;12.128;2022-11-20T04:23:22;3.95;;;2.50;;
27925;SDS011;15267;47.838;12.128;2022-11-20T04:25:48;3.88;;;2.30;;
27925;SDS011;15267;47.838;12.128;2022-11-20T04:28:14;3.22;;;2.53;;
27925;SDS011;15267;47.838;12.128;2022-11-20T04:30:40;4.30;;;2.90;;
27925;SDS011;15267;47.838;12.128;2022-11-20T04:33:06;5.55;;;3.75;;
27925;SDS011;15267;47.838;12.128;2022-11-20T04:35:35;6.43;;;3.90;;
27925;SDS011;15267;47.838;12.128;2022-11-20T04:38:01;4.15;;;3.17;;
27925;SDS011;15267;47.838;12.128;2022-11-20T04:40:27;4.65;;;3.08;;
27925;SDS011;15267;47.838;12.128;2022-11-20T04:42:53;3.53;;;2.90;;
27925;SDS011;15267;47.838;12.128;2022-11-20T04:45:19;3.42;;;2.53;;
27925;SDS011;15267;47.838;12.128;2022-11-20T04:47:45;2.70;;;2.50;;
27925;SDS011;15267;47.838;12.128;2022-11-20T04:50:11;4.03;;;2.40;;
27925;SDS011;15267;47.838;12.128;2022-11-20T04:52:37;3.40;;;2.63;;
27925;SDS011;15267;47.838;12.128;2022-11-20T04:55:03;3.42;;;2.30;;
27925;SDS011;15267;47.838;12.128;2022-11-20T04:57:29;3.00;;;2.58;;
27925;SDS011;15267;47.838;12.128;2022-11-20T04:59:55;2.67;;;2.47;;
27925;SDS011;15267;47.838;12.128;2022-11-20T05:02:21;2.83;;;2.50;;
27925;SDS011;15267;47.838;12.128;2022-11-20T05:04:47;4.00;;;2.72;;
27925;SDS011;15267;47.838;12.128;2022-11-20T05:07:13;5.40;;;4.25;;
27925;SDS011;15267;47.838;12.128;2022-11-20T05:09:39;3.47;;;2.85;;
27925;SDS011;15267;47.838;12.128;2022-11-20T05:12:06;6.68;;;5.32;;
27925;SDS011;15267;47.838;12.128;2022-11-20T05:14:32;3.45;;;3.15;;
27925;SDS011;15267;47.838;12.128;2022-11-20T05:16:58;4.10;;;3.10;;
27925;SDS011;15267;47.838;12.128;2022-11-20T05:19:24;4.47;;;2.72;;
27925;SDS011;15267;47.838;12.128;2022-11-20T05:21:50;3.00;;;2.65;;
27925;SDS011;15267;47.838;12.128;2022-11-20T05:24:16;4.03;;;3.10;;
27925;SDS011;15267;47.838;12.128;2022-11-20T05:26:42;4.55;;;3.30;;
27925;SDS011;15267;47.838;12.128;2022-11-20T05:29:11;3.45;;;2.80;;
27925;SDS011;15267;47.838;12.128;2022-11-20T05:31:38;4.40;;;3.20;;
27925;SDS011;15267;47.838;12.128;2022-11-20T05:34:04;3.80;;;2.80;;
27925;SDS011;15267;47.838;12.128;2022-11-20T05:36:30;4.43;;;3.17;;
27925;SDS011;15267;47.838;12.128;2022-11-20T05:38:56;3.15;;;2.85;;
27925;SDS011;15267;47.838;12.128;2022-11-20T05:41:22;3.95;;;3.50;;
27925;SDS011;15267;47.838;12.128;2022-11-20T05:43:48;5.10;;;4.03;;
27925;SDS011;15267;47.838;12.128;2022-11-20T05:46:16;5.38;;;4.05;;
27925;SDS011;15267;47.838;12.128;2022-11-20T05:48:42;7.45;;;5.15;;
27925;SDS011;15267;47.838;12.128;2022-11-20T05:51:09;4.20;;;3.42;;
27925;SDS011;15267;47.838;12.128;2022-11-20T05:53:36;5.22;;;3.22;;
27925;SDS011;15267;47.838;12.128;2022-11-20T05:56:20;5.72;;;3.60;;
27925;SDS011;15267;47.838;12.128;2022-11-20T05:58:47;6.03;;;4.40;;
27925;SDS011;15267;47.838;12.128;2022-11-20T06:01:14;5.72;;;3.30;;
27925;SDS011;15267;47.838;12.128;2022-11-20T06:03:41;4.00;;;3.55;;
27925;SDS011;15267;47.838;12.128;2022-11-20T06:06:08;5.07;;;3.42;;
27925;SDS011;15267;47.838;12.128;2022-11-20T06:08:35;5.55;;;3.40;;
27925;SDS011;15267;47.838;12.128;2022-11-20T06:11:05;4.55;;;3.17;;
27925;SDS011;15267;47.838;12.128;2022-11-20T06:13:31;5.43;;;3.28;;
27925;SDS011;15267;47.838;12.128;2022-11-20T06:15:57;3.80;;;3.05;;
27925;SDS011;15267;47.838;12.128;2022-11-20T06:18:23;3.60;;;3.10;;
27925;SDS011;15267;47.838;12.128;2022-11-20T06:20:58;4.03;;;3.05;;
27925;SDS011;15267;47.838;12.128;2022-11-20T06:23:24;3.92;;;3.17;;
27925;SDS011;15267;47.838;12.128;2022-11-20T06:25:50;5.13;;;2.95;;
27925;SDS011;15267;47.838;12.128;2022-11-20T06:28:16;3.20;;;2.85;;
27925;SDS011;15267;47.838;12.128;2022-11-20T06:30:44;3.92;;;3.53;;
27925;SDS011;15267;47.838;12.128;2022-11-20T06:33:10;4.95;;;4.03;;
27925;SDS011;15267;47.838;12.128;2022-11-20T06:35:36;4.30;;;3.45;;
27925;SDS011;15267;47.838;12.128;2022-11-20T06:38:02;4.70;;;4.20;;
27925;SDS011;15267;47.838;12.128;2022-11-20T06:40:28;5.10;;;4.43;;
27925;SDS011;15267;47.838;12.128;2022-11-20T06:42:54;7.85;;;6.80;;
27925;SDS011;15267;47.838;12.128;2022-11-20T06:45:21;3.25;;;2.80;;
27925;SDS011;15267;47.838;12.128;2022-11-20T06:47:47;5.22;;;3.63;;
27925;SDS011;15267;47.838;12.128;2022-11-20T06:50:13;4.78;;;3.80;;
27925;SDS011;15267;47.838;12.128;2022-11-20T06:52:39;10.55;;;8.70;;
27925;SDS011;15267;47.838;12.128;2022-11-20T06:55:05;5.20;;;3.42;;
27925;SDS011;15267;47.838;12.128;2022-11-20T06:57:31;5.53;;;4.00;;
27925;SDS011;15267;47.838;12.128;2022-11-20T06:59:57;4.75;;;3.10;;
27925;SDS011;15267;47.838;12.128;2022-11-20T07:02:23;4.75;;;3.78;;
27925;SDS011;15267;47.838;12.128;2022-11-20T07:04:49;7.85;;;4.72;;
27925;SDS011;15267;47.838;12.128;2022-11-20T07:07:15;4.97;;;3.08;;
27925;SDS011;15267;47.838;12.128;2022-11-20T07:09:40;5.50;;;3.75;;
27925;SDS011;15267;47.838;12.128;2022-11-20T07:12:06;3.83;;;2.78;;
27925;SDS011;15267;47.838;12.128;2022-11-20T07:14:32;5.10;;;4.32;;
27925;SDS011;15267;47.838;12.128;2022-11-20T07:16:58;5.28;;;3.90;;
27925;SDS011;15267;47.838;12.128;2022-11-20T07:19:24;5.25;;;4.30;;
27925;SDS011;15267;47.838;12.128;2022-11-20T07:21:50;5.22;;;4.72;;
27925;SDS011;15267;47.838;12.128;2022-11-20T07:24:17;4.82;;;4.13;;
27925;SDS011;15267;47.838;12.128;2022-11-20T07:26:45;3.65;;;3.03;;
27925;SDS011;15267;47.838;12.128;2022-11-20T07:29:11;7.70;;;4.70;;
27925;SDS011;15267;47.838;12.128;2022-11-20T07:31:37;9.55;;;5.00;;
27925;SDS011;15267;47.838;12.128;2022-11-20T07:34:03;5.20;;;3.05;;
27925;SDS011;15267;47.838;12.128;2022-11-20T07:36:29;3.75;;;2.80;;
27925;SDS011;15267;47.838;12.128;2022-11-20T07:38:55;3.30;;;2.85;;
27925;SDS011;15267;47.838;12.128;2022-11-20T07:41:21;4.03;;;2.45;;
27925;SDS011;15267;47.838;12.128;2022-11-20T07:43:47;3.83;;;2.60;;
27925;SDS011;15267;47.838;12.128;2022-11-20T07:46:13;3.25;;;2.53;;
27925;SDS011;15267;47.838;12.128;2022-11-20T07:48:39;4.53;;;2.67;;
27925;SDS011;15267;47.838;12.128;2022-11-20T07:51:05;3.00;;;2.70;;
27925;SDS011;15267;47.838;12.128;2022-11-20T07:53:31;5.65;;;3.00;;
27925;SDS011;15267;47.838;12.128;2022-11-20T07:56:01;3.70;;;2.72;;
27925;SDS011;15267;47.838;12.128;2022-11-20T07:58:28;3.10;;;2.55;;
27925;SDS011;15267;47.838;12.128;2022-11-20T08:00:54;4.68;;;2.95;;
27925;SDS011;15267;47.838;12.128;2022-11-20T08:03:20;3.13;;;2.72;;
27925;SDS011;15267;47.838;12.128;2022-11-20T08:05:46;2.58;;;2.38;;
27925;SDS011;15267;47.838;12.128;2022-11-20T08:08:12;4.60;;;3.30;;
27925;SDS011;15267;47.838;12.128;2022-11-20T08:10:38;9.07;;;6.40;;
27925;SDS011;15267;47.838;12.128;2022-11-20T08:13:05;4.55;;;3.30;;
27925;SDS011;15267;47.838;12.128;2022-11-20T08:15:50;8.80;;;5.95;;
27925;SDS011;15267;47.838;12.128;2022-11-20T08:18:17;4.10;;;3.58;;
27925;SDS011;15267;47.838;12.128;2022-11-20T08:20:43;4.38;;;3.78;;
27925;SDS011;15267;47.838;12.128;2022-11-20T08:23:09;5.50;;;4.13;;
27925;SDS011;15267;47.838;12.128;2022-11-20T08:25:35;6.97;;;4.35;;
27925;SDS011;15267;47.838;12.128;2022-11-20T08:28:03;3.85;;;2.70;;
27925;SDS011;15267;47.838;12.128;2022-11-20T08:30:29;4.70;;;3.63;;
27925;SDS011;15267;47.838;12.128;2022-11-20T08:32:56;4.32;;;2.13;;
27925;SDS011;15267;47.838;12.128;2022-11-20T08:35:26;6.18;;;3.90;;
27925;SDS011;15267;47.838;12.128;2022-11-20T08:37:52;3.30;;;2.25;;
27925;SDS011;15267;47.838;12.128;2022-11-20T08:40:18;2.78;;;1.50;;
27925;SDS011;15267;47.838;12.128;2022-11-20T08:42:50;3.45;;;2.03;;
27925;SDS011;15267;47.838;12.128;2022-11-20T08:45:16;3.00;;;1.65;;
27925;SDS011;15267;47.838;12.128;2022-11-20T08:47:43;1.73;;;1.33;;
27925;SDS011;15267;47.838;12.128;2022-11-20T08:50:10;2.33;;;1.40;;
27925;SDS011;15267;47.838;12.128;2022-11-20T08:52:36;6.03;;;3.67;;
27925;SDS011;15267;47.838;12.128;2022-11-20T08:55:03;1.38;;;1.25;;
27925;SDS011;15267;47.838;12.128;2022-11-20T08:57:32;1.95;;;1.38;;
27925;SDS011;15267;47.838;12.128;2022-11-20T08:59:59;2.03;;;1.50;;
27925;SDS011;15267;47.838;12.128;2022-11-20T09:02:25;3.47;;;2.10;;
27925;SDS011;15267;47.838;12.128;2022-11-20T09:04:51;1.58;;;1.20;;
27925;SDS011;15267;47.838;12.128;2022-11-20T09:07:18;3.20;;;2.13;;
27925;SDS011;15267;47.838;12.128;2022-11-20T09:09:44;2.47;;;1.50;;
27925;SDS011;15267;47.838;12.128;2022-11-20T09:12:10;2.65;;;2.25;;
27925;SDS011;15267;47.838;12.128;2022-11-20T09:14:36;5.38;;;2.92;;
27925;SDS011;15267;47.838;12.128;2022-11-20T09:17:02;2.10;;;1.88;;
27925;SDS011;15267;47.838;12.128;2022-11-20T09:19:28;1.02;;;0.88;;
27925;SDS011;15267;47.838;12.128;2022-11-20T09:21:54;2.42;;;0.80;;
27925;SDS011;15267;47.838;12.128;2022-11-20T09:24:19;1.58;;;1.02;;
27925;SDS011;15267;47.838;12.128;2022-11-20T09:26:46;0.77;;;0.70;;
27925;SDS011;15267;47.838;12.128;2022-11-20T09:29:12;0.60;;;0.60;;
27925;SDS011;15267;47.838;12.128;2022-11-20T09:31:38;0.68;;;0.57;;
27925;SDS011;15267;47.838;12.128;2022-11-20T09:34:04;1.75;;;0.80;;
27925;SDS011;15267;47.838;12.128;2022-11-20T09:36:30;0.98;;;0.63;;
27925;SDS011;15267;47.838;12.128;2022-11-20T09:38:56;0.85;;;0.50;;
27925;SDS011;15267;47.838;12.128;2022-11-20T09:46:57;1.00;;;0.73;;
27925;SDS011;15267;47.838;12.128;2022-11-20T09:49:42;1.10;;;0.63;;
27925;SDS011;15267;47.838;12.128;2022-11-20T09:52:22;0.90;;;0.63;;
27925;SDS011;15267;47.838;12.128;2022-11-20T09:54:52;1.00;;;0.77;;
27925;SDS011;15267;47.838;12.128;2022-11-20T09:57:30;0.75;;;0.50;;
27925;SDS011;15267;47.838;12.128;2022-11-20T09:59:59;0.68;;;0.50;;
27925;SDS011;15267;47.838;12.128;2022-11-20T10:02:28;0.45;;;0.35;;
27925;SDS011;15267;47.838;12.128;2022-11-20T10:04:58;0.80;;;0.52;;
27925;SDS011;15267;47.838;12.128;2022-11-20T10:07:30;0.50;;;0.50;;
27925;SDS011;15267;47.838;12.128;2022-11-20T10:09:58;0.85;;;0.75;;
27925;SDS011;15267;47.838;12.128;2022-11-20T10:14:56;1.27;;;0.60;;
27925;SDS011;15267;47.838;12.128;2022-11-20T10:17:41;0.55;;;0.40;;
27925;SDS011;15267;47.838;12.128;2022-11-20T10:25:20;0.68;;;0.60;;
27925;SDS011;15267;47.838;12.128;2022-11-20T10:30:18;0.70;;;0.60;;
27925;SDS011;15267;47.838;12.128;2022-11-20T10:32:54;0.82;;;0.82;;
27925;SDS011;15267;47.838;12.128;2022-11-20T10:35:23;2.17;;;1.20;;
27925;SDS011;15267;47.838;12.128;2022-11-20T10:37:53;3.05;;;2.13;;
27925;SDS011;15267;47.838;12.128;2022-11-20T10:40:22;3.25;;;1.50;;
27925;SDS011;15267;47.838;12.128;2022-11-20T10:42:54;1.95;;;1.02;;
27925;SDS011;15267;47.838;12.128;2022-11-20T10:47:47;1.33;;;1.00;;
27925;SDS011;15267;47.838;12.128;2022-11-20T10:50:14;1.00;;;0.90;;
27925;SDS011;15267;47.838;12.128;2022-11-20T10:58:10;1.30;;;0.60;;
27925;SDS011;15267;47.838;12.128;2022-11-20T11:00:38;1.00;;;0.90;;
27925;SDS011;15267;47.838;12.128;2022-11-20T11:03:20;1.90;;;1.40;;
27925;SDS011;15267;47.838;12.128;2022-11-20T11:06:00;5.88;;;3.88;;
27925;SDS011;15267;47.838;12.128;2022-11-20T11:08:28;2.72;;;1.95;;
27925;SDS011;15267;47.838;12.128;2022-11-20T11:11:03;2.63;;;1.70;;
27925;SDS011;15267;47.838;12.128;2022-11-20T11:13:33;6.68;;;4.50;;
27925;SDS011;15267;47.838;12.128;2022-11-20T11:15:59;3.28;;;1.83;;
27925;SDS011;15267;47.838;12.128;2022-11-20T11:18:25;2.00;;;0.75;;
27925;SDS011;15267;47.838;12.128;2022-11-20T11:20:52;2.17;;;1.23;;
27925;SDS011;15267;47.838;12.128;2022-11-20T11:23:26;1.40;;;0.70;;
27925;SDS011;15267;47.838;12.128;2022-11-20T11:25:56;0.80;;;0.70;;
27925;SDS011;15267;47.838;12.128;2022-11-20T11:28:23;1.17;;;0.70;;
27925;SDS011;15267;47.838;12.128;2022-11-20T11:30:52;1.85;;;1.27;;
27925;SDS011;15267;47.838;12.128;2022-11-20T11:33:20;3.40;;;2.33;;
27925;SDS011;15267;47.838;12.128;2022-11-20T11:35:47;1.60;;;0.60;;
27925;SDS011;15267;47.838;12.128;2022-11-20T11:38:15;0.70;;;0.50;;
27925;SDS011;15267;47.838;12.128;2022-11-20T11:40:43;5.65;;;0.50;;
27925;SDS011;15267;47.838;12.128;2022-11-20T11:43:19;1.27;;;0.55;;
27925;SDS011;15267;47.838;12.128;2022-11-20T11:46:08;1.20;;;1.00;;
27925;SDS011;15267;47.838;12.128;2022-11-20T11:51:29;3.13;;;2.67;;
27925;SDS011;15267;47.838;12.128;2022-11-20T11:53:57;1.50;;;0.70;;
27925;SDS011;15267;47.838;12.128;2022-11-20T11:56:33;0.50;;;0.50;;
27925;SDS011;15267;47.838;12.128;2022-11-20T11:59:00;0.80;;;0.80;;
27925;SDS011;15267;47.838;12.128;2022-11-20T12:01:37;0.52;;;0.52;;
27925;SDS011;15267;47.838;12.128;2022-11-20T12:04:10;0.80;;;0.80;;
27925;SDS011;15267;47.838;12.128;2022-11-20T12:06:39;1.58;;;1.13;;
27925;SDS011;15267;47.838;12.128;2022-11-20T12:09:08;1.35;;;1.13;;
27925;SDS011;15267;47.838;12.128;2022-11-20T12:14:38;1.38;;;0.88;;
27925;SDS011;15267;47.838;12.128;2022-11-20T12:17:05;1.20;;;0.95;;
27925;SDS011;15267;47.838;12.128;2022-11-20T12:19:31;0.93;;;0.80;;
27925;SDS011;15267;47.838;12.128;2022-11-20T12:22:26;2.38;;;1.58;;
27925;SDS011;15267;47.838;12.128;2022-11-20T12:24:59;1.90;;;1.40;;
27925;SDS011;15267;47.838;12.128;2022-11-20T12:30:41;1.70;;;1.35;;
27925;SDS011;15267;47.838;12.128;2022-11-20T12:32:56;2.15;;;1.17;;
27925;SDS011;15267;47.838;12.128;2022-11-20T12:35:42;1.92;;;0.98;;
27925;SDS011;15267;47.838;12.128;2022-11-20T12:43:21;1.15;;;0.85;;
27925;SDS011;15267;47.838;12.128;2022-11-20T12:48:56;1.80;;;0.80;;
27925;SDS011;15267;47.838;12.128;2022-11-20T13:01:29;2.55;;;1.20;;
27925;SDS011;15267;47.838;12.128;2022-11-20T13:06:34;1.38;;;1.17;;
27925;SDS011;15267;47.838;12.128;2022-11-20T13:09:00;1.00;;;0.95;;
27925;SDS011;15267;47.838;12.128;2022-11-20T13:11:32;1.77;;;0.73;;
27925;SDS011;15267;47.838;12.128;2022-11-20T13:14:24;2.65;;;1.75;;
27925;SDS011;15267;47.838;12.128;2022-11-20T13:17:00;1.95;;;1.60;;
27925;SDS011;15267;47.838;12.128;2022-11-20T13:19:28;2.75;;;1.55;;
27925;SDS011;15267;47.838;12.128;2022-11-20T13:21:54;4.82;;;2.58;;
27925;SDS011;15267;47.838;12.128;2022-11-20T13:29:34;2.15;;;1.30;;
27925;SDS011;15267;47.838;12.128;2022-11-20T13:32:04;0.90;;;0.90;;
27925;SDS011;15267;47.838;12.128;2022-11-20T13:34:31;1.90;;;1.58;;
27925;SDS011;15267;47.838;12.128;2022-11-20T13:36:58;1.90;;;1.27;;
27925;SDS011;15267;47.838;12.128;2022-11-20T13:39:32;1.63;;;1.00;;
27925;SDS011;15267;47.838;12.128;2022-11-20T13:41:59;2.75;;;1.20;;
27925;SDS011;15267;47.838;12.128;2022-11-20T13:46:55;0.90;;;0.85;;
27925;SDS011;15267;47.838;12.128;2022-11-20T13:51:47;1.30;;;0.90;;
27925;SDS011;15267;47.838;12.128;2022-11-20T13:54:22;1.35;;;1.05;;
27925;SDS011;15267;47.838;12.128;2022-11-20T13:59:28;1.92;;;1.17;;
27925;SDS011;15267;47.838;12.128;2022-11-20T14:01:57;1.58;;;0.90;;
27925;SDS011;15267;47.838;12.128;2022-11-20T14:04:30;2.72;;;1.00;;
27925;SDS011;15267;47.838;12.128;2022-11-20T14:06:58;3.03;;;1.15;;
27925;SDS011;15267;47.838;12.128;2022-11-20T14:09:31;1.60;;;0.93;;
27925;SDS011;15267;47.838;12.128;2022-11-20T14:11:58;0.90;;;0.80;;
27925;SDS011;15267;47.838;12.128;2022-11-20T14:14:25;2.55;;;0.90;;
27925;SDS011;15267;47.838;12.128;2022-11-20T14:16:52;1.10;;;1.00;;
27925;SDS011;15267;47.838;12.128;2022-11-20T14:21:47;2.42;;;1.10;;
27925;SDS011;15267;47.838;12.128;2022-11-20T14:24:14;2.67;;;1.10;;
27925;SDS011;15267;47.838;12.128;2022-11-20T14:26:44;1.08;;;0.88;;
27925;SDS011;15267;47.838;12.128;2022-11-20T14:29:18;0.93;;;0.73;;
27925;SDS011;15267;47.838;12.128;2022-11-20T14:31:44;1.40;;;1.02;;
27925;SDS011;15267;47.838;12.128;2022-11-20T14:34:19;2.60;;;0.95;;
27925;SDS011;15267;47.838;12.128;2022-11-20T14:36:45;4.47;;;2.67;;
27925;SDS011;15267;47.838;12.128;2022-11-20T14:39:12;2.45;;;1.77;;
27925;SDS011;15267;47.838;12.128;2022-11-20T14:44:11;2.25;;;1.35;;
27925;SDS011;15267;47.838;12.128;2022-11-20T14:46:37;2.55;;;1.30;;
27925;SDS011;15267;47.838;12.128;2022-11-20T14:49:03;1.70;;;1.33;;
27925;SDS011;15267;47.838;12.128;2022-11-20T14:51:31;1.10;;;1.00;;
27925;SDS011;15267;47.838;12.128;2022-11-20T14:54:11;2.45;;;1.17;;
27925;SDS011;15267;47.838;12.128;2022-11-20T14:56:37;2.30;;;1.17;;
27925;SDS011;15267;47.838;12.128;2022-11-20T14:59:03;2.90;;;2.53;;
27925;SDS011;15267;47.838;12.128;2022-11-20T15:01:30;2.42;;;1.20;;
27925;SDS011;15267;47.838;12.128;2022-11-20T15:04:14;4.25;;;1.15;;
27925;SDS011;15267;47.838;12.128;2022-11-20T15:06:48;2.80;;;1.15;;
27925;SDS011;15267;47.838;12.128;2022-11-20T15:09:14;2.33;;;1.17;;
27925;SDS011;15267;47.838;12.128;2022-11-20T15:11:40;2.08;;;1.38;;
27925;SDS011;15267;47.838;12.128;2022-11-20T15:14:16;4.47;;;1.95;;
27925;SDS011;15267;47.838;12.128;2022-11-20T15:16:42;6.03;;;4.53;;
27925;SDS011;15267;47.838;12.128;2022-11-20T15:19:19;1.50;;;1.27;;
27925;SDS011;15267;47.838;12.128;2022-11-20T15:21:45;6.15;;;3.38;;
27925;SDS011;15267;47.838;12.128;2022-11-20T15:24:11;2.42;;;1.40;;
27925;SDS011;15267;47.838;12.128;2022-11-20T15:26:37;3.50;;;1.80;;
27925;SDS011;15267;47.838;12.128;2022-11-20T15:29:05;2.10;;;1.70;;
27925;SDS011;15267;47.838;12.128;2022-11-20T15:31:31;2.05;;;1.42;;
27925;SDS011;15267;47.838;12.128;2022-11-20T15:33:56;1.90;;;1.35;;
27925;SDS011;15267;47.838;12.128;2022-11-20T15:36:22;3.25;;;1.80;;
27925;SDS011;15267;47.838;12.128;2022-11-20T15:38:48;2.33;;;1.75;;
27925;SDS011;15267;47.838;12.128;2022-11-20T15:41:14;3.38;;;1.63;;
27925;SDS011;15267;47.838;12.128;2022-11-20T15:43:40;3.80;;;1.88;;
27925;SDS011;15267;47.838;12.128;2022-11-20T15:46:09;3.47;;;1.98;;
27925;SDS011;15267;47.838;12.128;2022-11-20T15:48:37;3.28;;;2.03;;
27925;SDS011;15267;47.838;12.128;2022-11-20T15:51:12;4.60;;;2.33;;
27925;SDS011;15267;47.838;12.128;2022-11-20T15:53:41;2.75;;;2.00;;
27925;SDS011;15267;47.838;12.128;2022-11-20T15:56:13;3.45;;;2.10;;
27925;SDS011;15267;47.838;12.128;2022-11-20T15:58:40;3.58;;;2.20;;
27925;SDS011;15267;47.838;12.128;2022-11-20T16:01:13;3.95;;;2.38;;